createdAt,value
2022-09-23T00:01:18.982Z,99.29
2022-09-23T00:03:46.917Z,99.31
2022-09-23T00:06:16.552Z,99.54
2022-09-23T00:08:44.785Z,99.05
2022-09-23T00:11:18.702Z,99.21
2022-09-23T00:13:48.257Z,98.66
2022-09-23T00:16:22.641Z,99.24
2022-09-23T00:18:50.936Z,98.88
2022-09-23T00:21:21.796Z,99.24
2022-09-23T00:23:49.496Z,99.00
2022-09-23T00:26:19.252Z,99.44
2022-09-23T00:28:47.014Z,99.04
2022-09-23T00:31:18.342Z,99.49
2022-09-23T00:33:45.662Z,98.87
2022-09-23T00:36:16.192Z,98.68
2022-09-23T00:38:44.933Z,98.39
2022-09-23T00:41:16.395Z,98.38
2022-09-23T00:43:54.756Z,98.49
2022-09-23T00:46:28.650Z,98.81
2022-09-23T00:49:03.608Z,98.93
2022-09-23T00:51:38.782Z,98.83
2022-09-23T00:54:06.900Z,99.27
2022-09-23T00:56:35.869Z,100.00
2022-09-23T00:59:03.961Z,100.00
2022-09-23T01:01:31.133Z,100.00
2022-09-23T01:03:59.084Z,100.00
2022-09-23T01:06:26.683Z,100.00
2022-09-23T01:08:53.930Z,100.00
2022-09-23T01:11:29.879Z,100.00
2022-09-23T01:14:09.212Z,100.00
2022-09-23T01:16:39.363Z,100.00
2022-09-23T01:19:28.074Z,100.00
2022-09-23T01:22:05.230Z,100.00
2022-09-23T01:24:49.304Z,100.00
2022-09-23T01:27:57.872Z,100.00
2022-09-23T01:31:02.086Z,100.00
2022-09-23T01:33:55.904Z,100.00
2022-09-23T01:36:36.952Z,100.00
2022-09-23T01:39:13.491Z,100.00
2022-09-23T01:42:05.801Z,100.00
2022-09-23T01:45:00.577Z,100.00
2022-09-23T01:47:45.094Z,100.00
2022-09-23T01:50:37.939Z,100.00
2022-09-23T01:53:18.434Z,100.00
2022-09-23T01:55:51.728Z,100.00
2022-09-23T01:58:29.333Z,100.00
2022-09-23T02:01:07.447Z,100.00
2022-09-23T02:03:42.695Z,100.00
2022-09-23T02:06:34.891Z,100.00
2022-09-23T02:09:12.975Z,99.99
2022-09-23T02:11:42.161Z,99.82
2022-09-23T02:14:15.864Z,99.45
2022-09-23T02:16:47.725Z,99.08
2022-09-23T02:19:24.497Z,99.09
2022-09-23T02:22:00.963Z,98.70
2022-09-23T02:24:32.385Z,98.57
2022-09-23T02:27:02.251Z,98.62
2022-09-23T02:29:40.222Z,98.73
2022-09-23T02:32:13.166Z,98.87
2022-09-23T02:34:43.802Z,99.10
2022-09-23T02:37:31.497Z,99.11
2022-09-23T02:40:25.264Z,99.82
2022-09-23T02:43:07.977Z,99.82
2022-09-23T02:45:38.260Z,99.89
2022-09-23T02:48:13.422Z,100.00
2022-09-23T02:50:40.630Z,100.00
2022-09-23T02:53:08.064Z,100.00
2022-09-23T02:55:35.030Z,100.00
2022-09-23T02:58:03.685Z,100.00
2022-09-23T03:00:50.441Z,100.00
2022-09-23T03:03:30.231Z,100.00
2022-09-23T03:05:59.950Z,100.00
2022-09-23T03:08:36.859Z,100.00
2022-09-23T03:11:11.849Z,100.00
2022-09-23T03:14:07.140Z,100.00
2022-09-23T03:17:00.707Z,100.00
2022-09-23T03:19:34.344Z,100.00
2022-09-23T03:22:18.646Z,100.00
2022-09-23T03:24:51.856Z,100.00
2022-09-23T03:27:28.697Z,99.60
2022-09-23T03:29:57.292Z,99.30
2022-09-23T03:32:29.837Z,99.54
2022-09-23T03:35:00.300Z,99.41
2022-09-23T03:37:35.974Z,99.39
2022-09-23T03:40:09.305Z,99.69
2022-09-23T03:42:38.926Z,99.75
2022-09-23T03:45:10.399Z,99.38
2022-09-23T03:47:39.805Z,99.44
2022-09-23T03:50:07.697Z,99.73
2022-09-23T03:52:35.046Z,99.83
2022-09-23T03:55:02.242Z,99.52
2022-09-23T03:57:30.564Z,99.74
2022-09-23T03:59:57.739Z,99.58
2022-09-23T04:02:25.326Z,98.91
2022-09-23T04:04:52.820Z,99.08
2022-09-23T04:07:20.585Z,99.45
2022-09-23T04:09:48.369Z,99.83
2022-09-23T04:12:16.933Z,100.00
2022-09-23T04:14:45.227Z,99.74
2022-09-23T04:17:13.178Z,99.73
2022-09-23T04:19:40.626Z,99.33
2022-09-23T04:22:08.906Z,99.47
2022-09-23T04:24:38.123Z,99.40
2022-09-23T04:27:06.165Z,99.47
2022-09-23T04:29:33.415Z,99.75
2022-09-23T04:32:00.697Z,99.58
2022-09-23T04:34:28.353Z,98.74
2022-09-23T04:36:55.671Z,98.64
2022-09-23T04:39:24.105Z,98.64
2022-09-23T04:41:53.511Z,97.43
2022-09-23T04:44:22.275Z,97.31
2022-09-23T04:46:49.461Z,95.99
2022-09-23T04:49:16.777Z,95.38
2022-09-23T04:51:46.391Z,95.26
2022-09-23T04:54:15.163Z,94.72
2022-09-23T04:56:42.669Z,94.39
2022-09-23T04:59:09.884Z,94.72
2022-09-23T05:01:38.530Z,93.92
2022-09-23T05:04:08.956Z,93.16
2022-09-23T05:06:36.469Z,93.20
2022-09-23T05:09:06.248Z,93.22
2022-09-23T05:11:34.289Z,92.76
2022-09-23T05:14:01.519Z,92.88
2022-09-23T05:16:29.626Z,92.22
2022-09-23T05:18:58.503Z,92.49
2022-09-23T05:21:29.119Z,91.89
2022-09-23T05:23:59.367Z,91.43
2022-09-23T05:26:29.522Z,91.64
2022-09-23T05:28:58.216Z,91.97
2022-09-23T05:31:28.394Z,91.68
2022-09-23T05:33:59.826Z,91.00
2022-09-23T05:36:28.574Z,90.65
2022-09-23T05:38:56.865Z,90.66
2022-09-23T05:41:25.427Z,90.05
2022-09-23T05:43:54.462Z,88.93
2022-09-23T05:46:24.108Z,88.23
2022-09-23T05:48:52.752Z,87.74
2022-09-23T05:51:28.767Z,88.22
2022-09-23T05:53:58.530Z,87.87
2022-09-23T05:56:28.488Z,86.83
2022-09-23T05:58:58.648Z,85.96
2022-09-23T06:01:27.940Z,83.15
2022-09-23T06:03:57.555Z,82.14
2022-09-23T06:06:30.194Z,78.63
2022-09-23T06:09:02.012Z,76.45
2022-09-23T06:11:34.219Z,74.99
2022-09-23T06:14:02.522Z,75.13
2022-09-23T06:16:33.197Z,73.72
2022-09-23T06:19:06.118Z,74.33
2022-09-23T06:21:38.873Z,74.72
2022-09-23T06:24:07.079Z,73.84
2022-09-23T06:26:35.428Z,73.36
2022-09-23T06:29:04.099Z,73.01
2022-09-23T06:31:31.477Z,73.01
2022-09-23T06:34:09.792Z,72.95
2022-09-23T06:36:43.955Z,74.21
2022-09-23T06:39:16.347Z,74.33
2022-09-23T06:41:45.509Z,73.93
2022-09-23T06:44:16.408Z,74.21
2022-09-23T06:46:44.561Z,74.22
2022-09-23T06:49:13.661Z,74.37
2022-09-23T06:51:41.608Z,74.28
2022-09-23T06:54:09.179Z,73.09
2022-09-23T06:56:39.429Z,72.31
2022-09-23T06:59:09.864Z,70.93
2022-09-23T07:01:37.415Z,70.58
2022-09-23T07:04:04.690Z,69.37
2022-09-23T07:06:32.125Z,67.98
2022-09-23T07:08:59.117Z,67.50
2022-09-23T07:11:27.351Z,65.60
2022-09-23T07:13:54.606Z,63.34
2022-09-23T07:16:21.815Z,60.26
2022-09-23T07:18:48.990Z,57.53
2022-09-23T07:21:18.525Z,55.61
2022-09-23T07:23:48.229Z,51.48
2022-09-23T07:26:19.424Z,51.09
2022-09-23T07:28:47.952Z,51.14
2022-09-23T07:31:29.950Z,51.71
2022-09-23T07:44:49.957Z,58.76
2022-09-23T07:47:17.340Z,60.00
2022-09-23T07:49:44.765Z,61.04
2022-09-23T07:52:12.941Z,61.63
2022-09-23T07:54:40.638Z,61.53
2022-09-23T07:57:07.801Z,60.85
2022-09-23T07:59:34.891Z,60.93
2022-09-23T08:02:02.398Z,61.19
2022-09-23T08:04:31.650Z,60.74
2022-09-23T08:07:04.823Z,61.71
2022-09-23T08:09:41.625Z,61.48
2022-09-23T08:12:16.146Z,61.29
2022-09-23T08:14:44.172Z,61.50
2022-09-23T08:17:15.111Z,63.23
2022-09-23T08:19:43.352Z,64.47
2022-09-23T08:22:12.407Z,65.75
2022-09-23T08:24:39.956Z,65.60
2022-09-23T08:27:07.173Z,67.04
2022-09-23T08:29:35.316Z,65.88
2022-09-23T08:32:02.828Z,66.45
2022-09-23T08:34:32.838Z,67.03
2022-09-23T08:37:23.215Z,66.63
2022-09-23T08:39:52.937Z,66.29
2022-09-23T08:42:28.929Z,65.75
2022-09-23T08:45:00.076Z,65.53
2022-09-23T08:47:35.751Z,65.41
2022-09-23T08:50:18.741Z,65.31
2022-09-23T08:52:58.748Z,63.42
2022-09-23T08:55:44.631Z,63.47
2022-09-23T08:58:42.378Z,63.10
2022-09-23T09:01:28.625Z,62.10
2022-09-23T09:03:57.311Z,60.96
2022-09-23T09:06:51.855Z,61.92
2022-09-23T09:09:31.331Z,61.56
2022-09-23T09:12:22.898Z,62.58
2022-09-23T09:15:07.979Z,63.76
2022-09-23T09:17:38.939Z,63.94
2022-09-23T09:20:41.618Z,63.69
2022-09-23T09:23:11.991Z,63.53
2022-09-23T09:26:24.594Z,63.22
2022-09-23T09:29:39.632Z,62.68
2022-09-23T09:32:34.005Z,62.43
2022-09-23T09:35:24.506Z,62.34
2022-09-23T09:37:53.469Z,61.65
2022-09-23T09:40:21.026Z,61.74
2022-09-23T09:42:50.510Z,61.40
2022-09-23T09:45:28.025Z,60.83
2022-09-23T09:47:56.917Z,61.11
2022-09-23T09:50:47.768Z,60.27
2022-09-23T09:53:28.186Z,58.22
2022-09-23T09:56:05.970Z,57.45
2022-09-23T09:59:11.821Z,56.01
2022-09-23T10:02:30.231Z,54.30
2022-09-23T10:05:05.593Z,50.86
2022-09-23T10:07:35.193Z,49.35
2022-09-23T10:10:32.292Z,48.13
2022-09-23T10:16:43.058Z,44.46
2022-09-23T10:19:38.441Z,42.96
2022-09-23T10:22:21.015Z,44.22
2022-09-23T10:24:55.136Z,44.73
2022-09-23T10:27:36.611Z,47.20
2022-09-23T10:30:24.388Z,47.63
2022-09-23T10:32:55.094Z,48.13
2022-09-23T10:35:24.558Z,48.23
2022-09-23T10:37:56.970Z,49.34
2022-09-23T10:40:48.987Z,50.32
2022-09-23T10:44:00.360Z,50.66
2022-09-23T10:46:41.743Z,50.97
2022-09-23T10:49:35.286Z,50.48
2022-09-23T10:52:20.677Z,51.00
2022-09-23T10:55:03.309Z,51.53
2022-09-23T10:57:47.479Z,51.32
2022-09-23T11:00:23.645Z,51.40
2022-09-23T11:03:26.188Z,51.66
2022-09-23T11:06:13.532Z,52.41
2022-09-23T11:08:56.444Z,52.07
2022-09-23T11:12:21.470Z,51.10
2022-09-23T11:15:16.841Z,50.35
2022-09-23T11:17:47.218Z,51.03
2022-09-23T11:21:06.139Z,51.16
2022-09-23T11:24:02.518Z,50.92
2022-09-23T11:27:13.618Z,50.65
2022-09-23T11:29:59.996Z,50.00
2022-09-23T11:32:27.754Z,49.33
2022-09-23T11:35:11.175Z,48.20
2022-09-23T11:37:51.497Z,46.97
2022-09-23T11:40:22.107Z,46.00
2022-09-23T11:43:32.449Z,45.06
2022-09-23T11:46:31.011Z,43.18
2022-09-23T11:49:01.261Z,43.41
2022-09-23T11:51:37.636Z,43.67
2022-09-23T11:54:23.630Z,44.54
2022-09-23T11:57:04.557Z,45.85
2022-09-23T11:59:39.496Z,47.89
2022-09-23T12:02:29.617Z,49.66
2022-09-23T12:05:13.138Z,51.03
2022-09-23T12:08:05.656Z,52.05
2022-09-23T12:10:57.374Z,53.57
2022-09-23T12:13:30.291Z,53.92
2022-09-23T12:16:36.891Z,54.50
2022-09-23T12:19:28.881Z,54.00
2022-09-23T12:22:18.719Z,55.36
2022-09-23T12:25:18.932Z,55.66
2022-09-23T12:27:51.325Z,55.33
2022-09-23T12:30:33.770Z,56.49
2022-09-23T12:33:10.190Z,55.24
2022-09-23T12:35:46.592Z,55.45
2022-09-23T12:38:48.937Z,55.42
2022-09-23T12:41:52.919Z,54.51
2022-09-23T12:44:42.277Z,53.83
2022-09-23T12:47:15.083Z,54.31
2022-09-23T12:49:43.797Z,54.59
2022-09-23T12:52:10.756Z,54.01
2022-09-23T12:55:22.200Z,54.29
2022-09-23T12:59:01.817Z,53.97
2022-09-23T13:01:39.095Z,54.85
2022-09-23T13:04:45.815Z,54.35
2022-09-23T13:07:17.315Z,54.11
2022-09-23T13:09:51.056Z,53.57
2022-09-23T13:12:24.889Z,52.66
2022-09-23T13:15:54.453Z,52.20
2022-09-23T13:18:52.670Z,52.05
2022-09-23T13:21:44.986Z,50.38
2022-09-23T13:24:33.616Z,49.51
2022-09-23T13:27:06.099Z,49.42
2022-09-23T13:29:58.000Z,48.85
2022-09-23T13:32:31.839Z,49.64
2022-09-23T13:35:04.854Z,49.86
2022-09-23T13:37:40.172Z,50.08
2022-09-23T13:40:10.251Z,50.64
2022-09-23T13:42:41.222Z,51.23
2022-09-23T13:45:15.083Z,52.57
2022-09-23T13:47:44.800Z,53.29
2022-09-23T13:50:20.309Z,53.22
2022-09-23T13:52:53.727Z,54.16
2022-09-23T13:55:39.031Z,55.24
2022-09-23T13:58:21.292Z,56.45
2022-09-23T14:00:49.499Z,57.27
2022-09-23T14:03:18.379Z,58.04
2022-09-23T14:05:46.919Z,58.67
2022-09-23T14:08:15.298Z,59.08
2022-09-23T14:10:46.167Z,59.88
2022-09-23T14:13:35.349Z,60.72
2022-09-23T14:16:04.269Z,61.76
2022-09-23T14:18:46.341Z,62.68
2022-09-23T14:21:36.295Z,63.13
2022-09-23T14:24:16.903Z,62.81
2022-09-23T14:26:56.788Z,64.32
2022-09-23T14:29:27.381Z,64.51
2022-09-23T14:32:06.204Z,64.42
2022-09-23T14:34:42.370Z,64.53
2022-09-23T14:37:40.665Z,64.91
2022-09-23T14:40:23.316Z,65.32
2022-09-23T14:42:57.003Z,65.28
2022-09-23T14:45:28.211Z,65.99
2022-09-23T14:48:05.993Z,65.92
2022-09-23T14:50:37.086Z,66.07
2022-09-23T14:53:25.270Z,66.20
2022-09-23T14:56:07.398Z,66.68
2022-09-23T14:58:52.054Z,67.03
2022-09-23T15:01:32.600Z,66.84
2022-09-23T15:04:31.362Z,67.71
2022-09-23T15:07:03.902Z,67.89
2022-09-23T15:09:41.605Z,68.21
2022-09-23T15:12:14.796Z,68.75
2022-09-23T15:14:46.964Z,69.40
2022-09-23T15:17:23.372Z,69.71
2022-09-23T15:19:57.543Z,69.95
2022-09-23T15:22:25.972Z,70.24
2022-09-23T15:24:54.532Z,70.56
2022-09-23T15:27:33.609Z,71.22
2022-09-23T15:30:19.459Z,70.97
2022-09-23T15:32:47.010Z,71.72
2022-09-23T15:35:21.100Z,72.19
2022-09-23T15:37:49.985Z,71.48
2022-09-23T15:40:24.133Z,72.45
2022-09-23T15:42:56.224Z,72.28
2022-09-23T15:45:36.160Z,73.01
2022-09-23T15:48:12.648Z,73.21
2022-09-23T15:50:41.382Z,72.77
2022-09-23T15:53:13.385Z,73.42
2022-09-23T15:55:40.571Z,73.94
2022-09-23T15:58:07.921Z,73.14
2022-09-23T16:00:36.724Z,73.73
2022-09-23T16:03:06.846Z,73.29
2022-09-23T16:05:39.893Z,72.73
2022-09-23T16:08:10.131Z,73.32
2022-09-23T16:10:38.087Z,73.35
2022-09-23T16:13:08.501Z,73.16
2022-09-23T16:15:35.439Z,73.73
2022-09-23T16:18:02.773Z,73.20
2022-09-23T16:20:30.589Z,73.92
2022-09-23T16:22:59.804Z,73.91
2022-09-23T16:25:29.398Z,74.17
2022-09-23T16:27:58.621Z,74.64
2022-09-23T16:30:28.275Z,74.23
2022-09-23T16:32:56.198Z,74.17
2022-09-23T16:35:28.142Z,74.83
2022-09-23T16:37:56.285Z,74.32
2022-09-23T16:40:24.529Z,75.06
2022-09-23T16:42:54.597Z,74.66
2022-09-23T16:45:23.445Z,75.27
2022-09-23T16:47:52.717Z,75.97
2022-09-23T16:50:25.383Z,76.21
2022-09-23T16:52:56.391Z,76.64
2022-09-23T16:55:25.821Z,76.99
2022-09-23T16:57:54.372Z,77.12
2022-09-23T17:00:41.168Z,76.72
2022-09-23T17:03:26.640Z,77.35
2022-09-23T17:05:55.020Z,77.14
2022-09-23T17:08:23.001Z,77.13
2022-09-23T17:10:58.861Z,77.60
2022-09-23T17:13:30.405Z,77.62
2022-09-23T17:15:57.832Z,77.81
2022-09-23T17:18:27.302Z,77.51
2022-09-23T17:21:01.496Z,78.42
2022-09-23T17:23:31.593Z,77.65
2022-09-23T17:25:59.672Z,77.97
2022-09-23T17:28:27.341Z,79.09
2022-09-23T17:31:00.546Z,79.20
2022-09-23T17:33:30.603Z,79.68
2022-09-23T17:36:00.303Z,79.62
2022-09-23T17:38:29.599Z,80.18
2022-09-23T17:40:59.221Z,80.18
2022-09-23T17:43:26.832Z,80.18
2022-09-23T17:45:56.354Z,80.71
2022-09-23T17:48:25.650Z,81.02
2022-09-23T17:51:04.370Z,80.91
2022-09-23T17:53:35.975Z,81.13
2022-09-23T17:56:06.599Z,81.31
2022-09-23T17:58:36.515Z,81.56
2022-09-23T18:01:05.411Z,81.21
2022-09-23T18:03:33.728Z,81.57
2022-09-23T18:06:09.570Z,81.15
2022-09-23T18:08:36.946Z,81.80
2022-09-23T18:11:13.075Z,81.51
2022-09-23T18:13:40.815Z,81.80
2022-09-23T18:16:08.674Z,82.17
2022-09-23T18:18:37.070Z,82.50
2022-09-23T18:21:07.183Z,81.99
2022-09-23T18:23:37.450Z,81.83
2022-09-23T18:26:05.169Z,82.74
2022-09-23T18:28:34.844Z,82.97
2022-09-23T18:31:02.265Z,82.63
2022-09-23T18:33:29.441Z,83.16
2022-09-23T18:36:00.054Z,82.59
2022-09-23T18:38:27.219Z,82.36
2022-09-23T18:40:57.853Z,83.19
2022-09-23T18:43:25.914Z,83.44
2022-09-23T18:46:01.478Z,82.90
2022-09-23T18:48:49.194Z,83.81
2022-09-23T18:51:18.034Z,83.88
2022-09-23T18:53:50.387Z,84.54
2022-09-23T18:56:20.718Z,84.32
2022-09-23T18:58:52.104Z,84.85
2022-09-23T19:01:21.009Z,84.76
2022-09-23T19:03:54.125Z,85.34
2022-09-23T19:06:22.292Z,85.32
2022-09-23T19:08:53.947Z,85.29
2022-09-23T19:11:22.975Z,86.22
2022-09-23T19:13:58.564Z,86.23
2022-09-23T19:16:27.458Z,85.74
2022-09-23T19:18:55.300Z,86.35
2022-09-23T19:21:23.116Z,86.37
2022-09-23T19:23:53.394Z,86.62
2022-09-23T19:26:26.287Z,86.66
2022-09-23T19:28:57.538Z,87.01
2022-09-23T19:31:26.917Z,87.17
2022-09-23T19:33:57.202Z,87.23
2022-09-23T19:36:32.819Z,87.47
2022-09-23T19:39:03.248Z,87.50
2022-09-23T19:41:33.437Z,87.37
2022-09-23T19:44:07.647Z,87.36
2022-09-23T19:46:37.740Z,87.89
2022-09-23T19:49:07.525Z,87.17
2022-09-23T19:51:35.496Z,87.61
2022-09-23T19:54:04.812Z,87.12
2022-09-23T19:56:33.388Z,86.85
2022-09-23T19:59:03.206Z,87.39
2022-09-23T20:01:31.944Z,87.01
2022-09-23T20:04:00.036Z,87.70
2022-09-23T20:06:32.594Z,87.17
2022-09-23T20:09:00.968Z,87.28
2022-09-23T20:11:29.034Z,87.60
2022-09-23T20:14:09.513Z,87.14
2022-09-23T20:16:37.391Z,87.30
2022-09-23T20:19:05.799Z,87.82
2022-09-23T20:21:34.551Z,87.75
2022-09-23T20:24:08.653Z,87.68
2022-09-23T20:26:54.393Z,88.29
2022-09-23T20:29:21.601Z,87.71
2022-09-23T20:31:49.425Z,88.12
2022-09-23T20:34:16.974Z,87.86
2022-09-23T20:36:44.306Z,87.67
2022-09-23T20:39:11.725Z,88.29
2022-09-23T20:41:39.925Z,87.81
2022-09-23T20:44:10.456Z,87.73
2022-09-23T20:46:38.277Z,88.22
2022-09-23T20:49:08.046Z,87.99
2022-09-23T20:51:36.140Z,87.43
2022-09-23T20:54:04.490Z,87.57
2022-09-23T20:56:32.123Z,87.77
2022-09-23T20:59:04.404Z,88.04
2022-09-23T21:01:36.661Z,88.00
2022-09-23T21:04:06.121Z,87.17
2022-09-23T21:06:37.457Z,87.21
2022-09-23T21:09:06.218Z,87.64
2022-09-23T21:11:34.050Z,87.99
2022-09-23T21:14:02.254Z,88.32
2022-09-23T21:16:30.003Z,88.59
2022-09-23T21:18:58.544Z,89.42
2022-09-23T21:21:26.647Z,89.58
2022-09-23T21:23:53.997Z,90.03
2022-09-23T21:26:23.350Z,89.61
2022-09-23T21:28:57.657Z,89.65
2022-09-23T21:31:28.289Z,90.16
2022-09-23T21:34:01.179Z,91.01
2022-09-23T21:36:31.644Z,91.84
2022-09-23T21:39:01.995Z,91.79
2022-09-23T21:41:30.101Z,92.66
2022-09-23T21:43:57.885Z,93.65
2022-09-23T21:46:26.439Z,94.28
2022-09-23T21:48:55.790Z,95.55
2022-09-23T21:51:26.052Z,96.34
2022-09-23T21:53:55.223Z,96.87
2022-09-23T21:56:27.261Z,97.48
2022-09-23T21:58:55.709Z,98.19
2022-09-23T22:01:25.786Z,98.92
2022-09-23T22:03:56.069Z,99.76
2022-09-23T22:06:24.545Z,100.00
2022-09-23T22:08:59.129Z,100.00
2022-09-23T22:11:47.794Z,100.00
2022-09-23T22:14:17.354Z,100.00
2022-09-23T22:16:45.260Z,100.00
2022-09-23T22:19:13.800Z,100.00
2022-09-23T22:21:42.789Z,100.00
2022-09-23T22:24:11.640Z,100.00
2022-09-23T22:26:44.158Z,100.00
2022-09-23T22:29:32.413Z,100.00
2022-09-23T22:32:19.794Z,100.00
2022-09-23T22:34:50.623Z,100.00
2022-09-23T22:37:28.366Z,100.00
2022-09-23T22:39:56.049Z,100.00
2022-09-23T22:42:23.087Z,100.00
2022-09-23T22:44:50.963Z,100.00
2022-09-23T22:47:20.510Z,100.00
2022-09-23T22:49:48.966Z,100.00
2022-09-23T22:52:21.222Z,100.00
2022-09-23T22:54:48.862Z,100.00
2022-09-23T22:57:16.624Z,100.00
2022-09-23T22:59:48.119Z,100.00
2022-09-23T23:02:17.934Z,100.00
2022-09-23T23:04:48.675Z,100.00
2022-09-23T23:07:21.525Z,100.00
2022-09-23T23:09:52.624Z,100.00
2022-09-23T23:12:21.045Z,100.00
2022-09-23T23:14:49.536Z,100.00
2022-09-23T23:17:17.847Z,100.00
2022-09-23T23:19:45.242Z,100.00
2022-09-23T23:22:12.918Z,100.00
2022-09-23T23:24:40.710Z,100.00
2022-09-23T23:27:07.933Z,100.00
2022-09-23T23:29:35.107Z,100.00
2022-09-23T23:32:02.560Z,100.00
2022-09-23T23:34:29.613Z,100.00
2022-09-23T23:36:56.733Z,100.00
2022-09-23T23:39:25.586Z,100.00
2022-09-23T23:41:55.666Z,100.00
2022-09-23T23:44:24.756Z,100.00
2022-09-23T23:46:56.124Z,100.00
2022-09-23T23:49:24.102Z,100.00
2022-09-23T23:51:51.632Z,100.00
2022-09-23T23:54:19.245Z,100.00
2022-09-23T23:56:46.726Z,100.00
2022-09-23T23:59:13.691Z,100.00
